Vremea acum in Beclean - Romania

Vrei sa afli care e starea vremii acum in Bistrita-Nasaud - Romania? Dorim sa iti furnizam starea vremii pentru Bistrita-Nasaud - Romania. Starea vremii Bistrita-Nasaud - Romania pentru astazi.

Vremea acum in Beclean

Temperatura: 20.1 °C

Este: Senin
Se simte ca: 20.1 °C
Innorat: 0 %
Precipitatii: 0 %
Presiune atmosferica: 1014 hPa
Umiditate: 53%
Vizibilitate: 10 km
Vantul bate din NW cu 11.5 km/h

Evolutia vremii in Beclean pe ore

Ora: 19:00
Senin
Temperatura: 20.1°C
Sansa de precipitatii: 0%
Ora Descriere Temp Se simte Precipitatii Umiditate Vant
00:00Ceata12.3°12.8°0%95%WNW 3.6 KM/H
01:00Ceata12.1°12.1°0%94%W 2.5 KM/H
02:00Patchy rain nearby11.9°11.9°73%94%WNW 2.9 KM/H
03:00Patchy rain nearby11.6°11.6°61%93%NW 2.5 KM/H
04:00Acoperit de nori11.2°11.2°0%93%NW 2.9 KM/H
05:00Patchy rain nearby11°11°78%93%NNW 2.2 KM/H
06:00Patchy rain nearby10.8°10.9°60%93%WNW 2.2 KM/H
07:00Patchy rain nearby12.3°12.3°100%92%W 2.2 KM/H
08:00Patchy rain nearby13.2°13.2°100%90%W 1.1 KM/H
09:00Patchy rain nearby13.7°13.7°100%89%WSW 1.1 KM/H
10:00Innorat14.4°14.4°0%86%NE 1.8 KM/H
11:00Patchy rain nearby15.9°15.9°67%80%ENE 3.2 KM/H
12:00Patchy rain nearby16.1°16.1°80%81%NNW 6.8 KM/H
13:00Patchy rain nearby18.4°18.4°100%71%NW 6.1 KM/H
14:00Ploi usoare19.3°19.3°100%66%WNW 7.6 KM/H
15:00Ploi usoare19.7°19.7°100%64%WNW 10.4 KM/H
16:00Patchy rain nearby20°20°100%61%NW 11.5 KM/H
17:0020.3°20.3°0%59%NW 12.6 KM/H
18:0019.8°19.8°0%60%NW 13.3 KM/H
19:00Senin20.1°18.9°0%53%NW 11.5 KM/H
20:00Senin15.3°15.3°0%78%NW 9 KM/H
21:00Senin12.2°11.9°0%84%NNW 6.8 KM/H
22:00Senin11.5°11.3°0%85%NW 5.4 KM/H
23:00Senin11.1°10.9°0%86%NNW 5.4 KM/H




tutorials